sensor_id;sensor_type;location;lat;lon;timestamp;P1;durP1;ratioP1;P2;durP2;ratioP2
40595;SDS011;26304;48.794;9.820;2023-03-11T00:04:03;0.40;;;0.40;;
40595;SDS011;26304;48.794;9.820;2023-03-11T00:09:45;0.47;;;0.47;;
40595;SDS011;26304;48.794;9.820;2023-03-11T00:15:28;0.55;;;0.40;;
40595;SDS011;26304;48.794;9.820;2023-03-11T00:21:14;0.20;;;0.20;;
40595;SDS011;26304;48.794;9.820;2023-03-11T00:26:58;0.28;;;0.28;;
40595;SDS011;26304;48.794;9.820;2023-03-11T00:32:40;0.30;;;0.30;;
40595;SDS011;26304;48.794;9.820;2023-03-11T00:38:24;0.30;;;0.30;;
40595;SDS011;26304;48.794;9.820;2023-03-11T00:44:07;0.32;;;0.32;;
40595;SDS011;26304;48.794;9.820;2023-03-11T00:49:49;0.40;;;0.40;;
40595;SDS011;26304;48.794;9.820;2023-03-11T00:55:33;0.28;;;0.28;;
40595;SDS011;26304;48.794;9.820;2023-03-11T01:01:17;0.57;;;0.30;;
40595;SDS011;26304;48.794;9.820;2023-03-11T01:07:00;0.30;;;0.30;;
40595;SDS011;26304;48.794;9.820;2023-03-11T01:12:44;0.30;;;0.30;;
40595;SDS011;26304;48.794;9.820;2023-03-11T01:18:26;0.30;;;0.30;;
40595;SDS011;26304;48.794;9.820;2023-03-11T01:24:08;0.35;;;0.35;;
40595;SDS011;26304;48.794;9.820;2023-03-11T01:29:52;0.30;;;0.30;;
40595;SDS011;26304;48.794;9.820;2023-03-11T01:35:35;0.30;;;0.30;;
40595;SDS011;26304;48.794;9.820;2023-03-11T01:41:19;0.35;;;0.35;;
40595;SDS011;26304;48.794;9.820;2023-03-11T01:47:29;0.20;;;0.20;;
40595;SDS011;26304;48.794;9.820;2023-03-11T01:53:17;0.30;;;0.30;;
40595;SDS011;26304;48.794;9.820;2023-03-11T01:58:59;0.30;;;0.30;;
40595;SDS011;26304;48.794;9.820;2023-03-11T02:04:43;0.30;;;0.30;;
40595;SDS011;26304;48.794;9.820;2023-03-11T02:10:26;0.22;;;0.22;;
40595;SDS011;26304;48.794;9.820;2023-03-11T02:16:08;0.65;;;0.45;;
40595;SDS011;26304;48.794;9.820;2023-03-11T02:21:52;0.25;;;0.20;;
40595;SDS011;26304;48.794;9.820;2023-03-11T02:27:37;0.20;;;0.20;;
40595;SDS011;26304;48.794;9.820;2023-03-11T02:33:25;0.35;;;0.35;;
40595;SDS011;26304;48.794;9.820;2023-03-11T02:39:12;0.30;;;0.30;;
40595;SDS011;26304;48.794;9.820;2023-03-11T02:44:56;0.25;;;0.25;;
40595;SDS011;26304;48.794;9.820;2023-03-11T02:50:42;0.20;;;0.20;;
40595;SDS011;26304;48.794;9.820;2023-03-11T02:56:26;0.55;;;0.30;;
40595;SDS011;26304;48.794;9.820;2023-03-11T03:02:10;0.20;;;0.20;;
40595;SDS011;26304;48.794;9.820;2023-03-11T03:07:54;0.20;;;0.20;;
40595;SDS011;26304;48.794;9.820;2023-03-11T03:13:36;0.20;;;0.20;;
40595;SDS011;26304;48.794;9.820;2023-03-11T03:19:20;0.30;;;0.30;;
40595;SDS011;26304;48.794;9.820;2023-03-11T03:25:03;0.20;;;0.20;;
40595;SDS011;26304;48.794;9.820;2023-03-11T03:30:46;0.20;;;0.20;;
40595;SDS011;26304;48.794;9.820;2023-03-11T03:36:30;0.20;;;0.20;;
40595;SDS011;26304;48.794;9.820;2023-03-11T03:42:12;0.10;;;0.10;;
40595;SDS011;26304;48.794;9.820;2023-03-11T03:47:54;0.20;;;0.20;;
40595;SDS011;26304;48.794;9.820;2023-03-11T03:53:38;0.10;;;0.10;;
40595;SDS011;26304;48.794;9.820;2023-03-11T03:59:21;0.10;;;0.10;;
40595;SDS011;26304;48.794;9.820;2023-03-11T04:05:04;0.10;;;0.10;;
40595;SDS011;26304;48.794;9.820;2023-03-11T04:10:56;0.10;;;0.10;;
40595;SDS011;26304;48.794;9.820;2023-03-11T04:16:38;0.10;;;0.10;;
40595;SDS011;26304;48.794;9.820;2023-03-11T04:22:21;0.00;;;0.00;;
40595;SDS011;26304;48.794;9.820;2023-03-11T04:28:05;0.00;;;0.00;;
40595;SDS011;26304;48.794;9.820;2023-03-11T04:33:47;0.00;;;0.00;;
40595;SDS011;26304;48.794;9.820;2023-03-11T04:39:29;0.10;;;0.10;;
40595;SDS011;26304;48.794;9.820;2023-03-11T04:45:14;0.10;;;0.10;;
40595;SDS011;26304;48.794;9.820;2023-03-11T04:50:58;0.10;;;0.10;;
40595;SDS011;26304;48.794;9.820;2023-03-11T04:56:40;0.00;;;0.00;;
40595;SDS011;26304;48.794;9.820;2023-03-11T05:02:24;0.90;;;0.20;;
40595;SDS011;26304;48.794;9.820;2023-03-11T05:08:06;0.55;;;0.20;;
40595;SDS011;26304;48.794;9.820;2023-03-11T05:13:49;0.45;;;0.20;;
40595;SDS011;26304;48.794;9.820;2023-03-11T05:19:32;0.30;;;0.10;;
40595;SDS011;26304;48.794;9.820;2023-03-11T05:25:15;0.75;;;0.20;;
40595;SDS011;26304;48.794;9.820;2023-03-11T05:30:57;0.20;;;0.20;;
40595;SDS011;26304;48.794;9.820;2023-03-11T05:36:41;0.28;;;0.20;;
40595;SDS011;26304;48.794;9.820;2023-03-11T05:42:24;0.68;;;0.15;;
40595;SDS011;26304;48.794;9.820;2023-03-11T05:48:06;0.10;;;0.10;;
40595;SDS011;26304;48.794;9.820;2023-03-11T05:53:50;0.05;;;0.05;;
40595;SDS011;26304;48.794;9.820;2023-03-11T05:59:32;0.17;;;0.17;;
40595;SDS011;26304;48.794;9.820;2023-03-11T06:05:17;0.20;;;0.20;;
40595;SDS011;26304;48.794;9.820;2023-03-11T06:11:01;1.13;;;0.40;;
40595;SDS011;26304;48.794;9.820;2023-03-11T06:16:44;1.75;;;0.20;;
40595;SDS011;26304;48.794;9.820;2023-03-11T06:22:26;1.58;;;0.30;;
40595;SDS011;26304;48.794;9.820;2023-03-11T06:28:10;0.57;;;0.22;;
40595;SDS011;26304;48.794;9.820;2023-03-11T06:33:53;0.82;;;0.40;;
40595;SDS011;26304;48.794;9.820;2023-03-11T06:39:36;1.00;;;0.40;;
40595;SDS011;26304;48.794;9.820;2023-03-11T06:45:20;0.35;;;0.30;;
40595;SDS011;26304;48.794;9.820;2023-03-11T06:51:02;5.03;;;1.48;;
40595;SDS011;26304;48.794;9.820;2023-03-11T06:56:45;2.47;;;0.50;;
40595;SDS011;26304;48.794;9.820;2023-03-11T07:02:29;1.25;;;0.65;;
40595;SDS011;26304;48.794;9.820;2023-03-11T07:08:11;1.77;;;1.00;;
40595;SDS011;26304;48.794;9.820;2023-03-11T07:13:54;2.95;;;0.80;;
40595;SDS011;26304;48.794;9.820;2023-03-11T07:19:38;2.10;;;0.90;;
40595;SDS011;26304;48.794;9.820;2023-03-11T07:25:21;2.65;;;0.88;;
40595;SDS011;26304;48.794;9.820;2023-03-11T07:31:06;3.13;;;0.98;;
40595;SDS011;26304;48.794;9.820;2023-03-11T07:36:51;3.15;;;1.52;;
40595;SDS011;26304;48.794;9.820;2023-03-11T07:42:33;2.25;;;1.35;;
40595;SDS011;26304;48.794;9.820;2023-03-11T07:48:16;2.53;;;1.10;;
40595;SDS011;26304;48.794;9.820;2023-03-11T07:54:00;2.05;;;1.13;;
40595;SDS011;26304;48.794;9.820;2023-03-11T07:59:43;3.05;;;1.20;;
40595;SDS011;26304;48.794;9.820;2023-03-11T08:05:26;2.08;;;1.20;;
40595;SDS011;26304;48.794;9.820;2023-03-11T08:11:10;3.38;;;1.05;;
40595;SDS011;26304;48.794;9.820;2023-03-11T08:16:53;3.13;;;1.42;;
40595;SDS011;26304;48.794;9.820;2023-03-11T08:22:35;2.63;;;1.50;;
40595;SDS011;26304;48.794;9.820;2023-03-11T08:28:19;3.63;;;1.25;;
40595;SDS011;26304;48.794;9.820;2023-03-11T08:34:02;2.88;;;1.17;;
40595;SDS011;26304;48.794;9.820;2023-03-11T08:39:46;1.83;;;1.00;;
40595;SDS011;26304;48.794;9.820;2023-03-11T08:45:30;3.03;;;1.40;;
40595;SDS011;26304;48.794;9.820;2023-03-11T08:51:14;2.53;;;1.30;;
40595;SDS011;26304;48.794;9.820;2023-03-11T08:56:57;2.63;;;1.20;;
40595;SDS011;26304;48.794;9.820;2023-03-11T09:02:44;2.17;;;1.13;;
40595;SDS011;26304;48.794;9.820;2023-03-11T09:08:27;2.33;;;1.30;;
40595;SDS011;26304;48.794;9.820;2023-03-11T09:14:10;1.90;;;1.00;;
40595;SDS011;26304;48.794;9.820;2023-03-11T09:19:54;1.15;;;1.05;;
40595;SDS011;26304;48.794;9.820;2023-03-11T09:25:36;1.20;;;1.00;;
40595;SDS011;26304;48.794;9.820;2023-03-11T09:31:19;2.33;;;1.15;;
40595;SDS011;26304;48.794;9.820;2023-03-11T09:37:03;1.77;;;1.08;;
40595;SDS011;26304;48.794;9.820;2023-03-11T09:42:47;1.35;;;0.90;;
40595;SDS011;26304;48.794;9.820;2023-03-11T09:48:46;1.73;;;0.90;;
40595;SDS011;26304;48.794;9.820;2023-03-11T09:54:36;1.95;;;0.90;;
40595;SDS011;26304;48.794;9.820;2023-03-11T10:00:22;2.10;;;1.00;;
40595;SDS011;26304;48.794;9.820;2023-03-11T10:06:13;1.92;;;1.00;;
40595;SDS011;26304;48.794;9.820;2023-03-11T10:12:01;0.90;;;0.90;;
40595;SDS011;26304;48.794;9.820;2023-03-11T10:18:05;1.27;;;0.88;;
40595;SDS011;26304;48.794;9.820;2023-03-11T10:24:02;1.77;;;1.00;;
40595;SDS011;26304;48.794;9.820;2023-03-11T10:29:57;2.03;;;1.20;;
40595;SDS011;26304;48.794;9.820;2023-03-11T10:35:45;1.23;;;1.10;;
40595;SDS011;26304;48.794;9.820;2023-03-11T10:41:35;2.17;;;1.00;;
40595;SDS011;26304;48.794;9.820;2023-03-11T10:47:25;1.27;;;0.80;;
40595;SDS011;26304;48.794;9.820;2023-03-11T10:53:07;2.00;;;0.90;;
40595;SDS011;26304;48.794;9.820;2023-03-11T10:58:51;1.50;;;1.02;;
40595;SDS011;26304;48.794;9.820;2023-03-11T11:04:38;2.15;;;1.13;;
40595;SDS011;26304;48.794;9.820;2023-03-11T11:10:22;1.23;;;0.88;;
40595;SDS011;26304;48.794;9.820;2023-03-11T11:16:15;1.35;;;0.90;;
40595;SDS011;26304;48.794;9.820;2023-03-11T11:22:03;1.95;;;0.90;;
40595;SDS011;26304;48.794;9.820;2023-03-11T11:27:52;3.30;;;1.00;;
40595;SDS011;26304;48.794;9.820;2023-03-11T11:33:38;1.83;;;0.80;;
40595;SDS011;26304;48.794;9.820;2023-03-11T11:39:32;3.80;;;1.05;;
40595;SDS011;26304;48.794;9.820;2023-03-11T11:45:25;1.50;;;0.77;;
40595;SDS011;26304;48.794;9.820;2023-03-11T11:51:12;1.90;;;0.93;;
40595;SDS011;26304;48.794;9.820;2023-03-11T11:57:07;1.95;;;0.88;;
40595;SDS011;26304;48.794;9.820;2023-03-11T12:02:57;3.45;;;1.05;;
40595;SDS011;26304;48.794;9.820;2023-03-11T12:08:59;7.70;;;1.52;;
40595;SDS011;26304;48.794;9.820;2023-03-11T12:14:50;3.20;;;0.80;;
40595;SDS011;26304;48.794;9.820;2023-03-11T12:20:44;3.15;;;1.00;;
40595;SDS011;26304;48.794;9.820;2023-03-11T12:26:31;1.80;;;1.10;;
40595;SDS011;26304;48.794;9.820;2023-03-11T12:32:22;1.83;;;0.90;;
40595;SDS011;26304;48.794;9.820;2023-03-11T12:38:14;4.85;;;1.55;;
40595;SDS011;26304;48.794;9.820;2023-03-11T12:44:03;2.65;;;1.15;;
40595;SDS011;26304;48.794;9.820;2023-03-11T12:56:22;2.17;;;1.00;;
40595;SDS011;26304;48.794;9.820;2023-03-11T13:02:18;4.35;;;1.00;;
40595;SDS011;26304;48.794;9.820;2023-03-11T13:08:12;3.33;;;1.27;;
40595;SDS011;26304;48.794;9.820;2023-03-11T13:14:07;2.15;;;1.02;;
40595;SDS011;26304;48.794;9.820;2023-03-11T13:19:52;1.30;;;1.17;;
40595;SDS011;26304;48.794;9.820;2023-03-11T13:25:39;1.73;;;0.90;;
40595;SDS011;26304;48.794;9.820;2023-03-11T13:31:31;3.00;;;0.98;;
40595;SDS011;26304;48.794;9.820;2023-03-11T13:37:25;3.92;;;0.85;;
40595;SDS011;26304;48.794;9.820;2023-03-11T13:43:19;2.25;;;1.15;;
40595;SDS011;26304;48.794;9.820;2023-03-11T13:49:04;2.55;;;1.00;;
40595;SDS011;26304;48.794;9.820;2023-03-11T13:54:50;4.78;;;1.33;;
40595;SDS011;26304;48.794;9.820;2023-03-11T14:00:40;0.93;;;0.70;;
40595;SDS011;26304;48.794;9.820;2023-03-11T14:06:29;4.72;;;1.30;;
40595;SDS011;26304;48.794;9.820;2023-03-11T14:12:11;3.97;;;1.33;;
40595;SDS011;26304;48.794;9.820;2023-03-11T14:17:56;4.07;;;1.50;;
40595;SDS011;26304;48.794;9.820;2023-03-11T14:24:12;11.00;;;2.47;;
40595;SDS011;26304;48.794;9.820;2023-03-11T14:29:57;8.30;;;1.55;;
40595;SDS011;26304;48.794;9.820;2023-03-11T14:35:41;6.93;;;1.83;;
40595;SDS011;26304;48.794;9.820;2023-03-11T14:41:36;7.70;;;1.65;;
40595;SDS011;26304;48.794;9.820;2023-03-11T14:47:22;8.73;;;1.63;;
40595;SDS011;26304;48.794;9.820;2023-03-11T14:53:16;4.22;;;1.35;;
40595;SDS011;26304;48.794;9.820;2023-03-11T14:59:02;4.47;;;1.52;;
40595;SDS011;26304;48.794;9.820;2023-03-11T15:04:49;4.80;;;1.40;;
40595;SDS011;26304;48.794;9.820;2023-03-11T15:10:34;2.38;;;1.30;;
40595;SDS011;26304;48.794;9.820;2023-03-11T15:16:21;2.70;;;1.50;;
40595;SDS011;26304;48.794;9.820;2023-03-11T15:22:16;1.65;;;1.15;;
40595;SDS011;26304;48.794;9.820;2023-03-11T15:28:22;2.00;;;1.13;;
40595;SDS011;26304;48.794;9.820;2023-03-11T15:40:09;1.98;;;1.00;;
40595;SDS011;26304;48.794;9.820;2023-03-11T15:45:56;1.60;;;1.00;;
40595;SDS011;26304;48.794;9.820;2023-03-11T15:51:41;8.37;;;1.70;;
40595;SDS011;26304;48.794;9.820;2023-03-11T15:57:24;3.47;;;1.35;;
40595;SDS011;26304;48.794;9.820;2023-03-11T16:03:10;4.07;;;1.65;;
40595;SDS011;26304;48.794;9.820;2023-03-11T16:08:52;2.47;;;1.55;;
40595;SDS011;26304;48.794;9.820;2023-03-11T16:14:34;1.33;;;1.23;;
40595;SDS011;26304;48.794;9.820;2023-03-11T16:20:18;2.03;;;1.20;;
40595;SDS011;26304;48.794;9.820;2023-03-11T16:26:02;2.67;;;1.27;;
40595;SDS011;26304;48.794;9.820;2023-03-11T16:31:46;1.95;;;1.10;;
40595;SDS011;26304;48.794;9.820;2023-03-11T16:37:30;3.08;;;1.58;;
40595;SDS011;26304;48.794;9.820;2023-03-11T16:43:12;4.40;;;1.50;;
40595;SDS011;26304;48.794;9.820;2023-03-11T16:48:55;5.15;;;2.03;;
40595;SDS011;26304;48.794;9.820;2023-03-11T16:54:39;7.28;;;4.57;;
40595;SDS011;26304;48.794;9.820;2023-03-11T17:00:21;13.35;;;9.77;;
40595;SDS011;26304;48.794;9.820;2023-03-11T17:06:04;21.15;;;13.73;;
40595;SDS011;26304;48.794;9.820;2023-03-11T17:11:48;22.17;;;14.70;;
40595;SDS011;26304;48.794;9.820;2023-03-11T17:17:30;25.25;;;18.30;;
40595;SDS011;26304;48.794;9.820;2023-03-11T17:23:13;24.30;;;21.60;;
40595;SDS011;26304;48.794;9.820;2023-03-11T17:28:57;23.75;;;20.83;;
40595;SDS011;26304;48.794;9.820;2023-03-11T17:34:40;22.98;;;20.50;;
40595;SDS011;26304;48.794;9.820;2023-03-11T17:40:22;21.08;;;18.98;;
40595;SDS011;26304;48.794;9.820;2023-03-11T17:46:08;19.98;;;17.85;;
40595;SDS011;26304;48.794;9.820;2023-03-11T17:51:52;18.05;;;16.25;;
40595;SDS011;26304;48.794;9.820;2023-03-11T17:57:34;15.98;;;14.43;;
40595;SDS011;26304;48.794;9.820;2023-03-11T18:03:18;15.48;;;13.63;;
40595;SDS011;26304;48.794;9.820;2023-03-11T18:09:00;16.63;;;13.45;;
40595;SDS011;26304;48.794;9.820;2023-03-11T18:14:43;13.35;;;11.43;;
40595;SDS011;26304;48.794;9.820;2023-03-11T18:20:26;11.88;;;10.70;;
40595;SDS011;26304;48.794;9.820;2023-03-11T18:26:09;11.57;;;10.38;;
40595;SDS011;26304;48.794;9.820;2023-03-11T18:31:53;9.13;;;8.20;;
40595;SDS011;26304;48.794;9.820;2023-03-11T18:37:38;9.88;;;7.97;;
40595;SDS011;26304;48.794;9.820;2023-03-11T18:43:20;11.68;;;7.32;;
40595;SDS011;26304;48.794;9.820;2023-03-11T18:49:03;9.50;;;6.93;;
40595;SDS011;26304;48.794;9.820;2023-03-11T18:54:47;7.93;;;6.97;;
40595;SDS011;26304;48.794;9.820;2023-03-11T19:00:29;7.65;;;6.35;;
40595;SDS011;26304;48.794;9.820;2023-03-11T19:06:12;9.18;;;6.15;;
40595;SDS011;26304;48.794;9.820;2023-03-11T19:11:55;10.38;;;6.53;;
40595;SDS011;26304;48.794;9.820;2023-03-11T19:17:38;8.50;;;5.90;;
40595;SDS011;26304;48.794;9.820;2023-03-11T19:23:20;9.48;;;5.80;;
40595;SDS011;26304;48.794;9.820;2023-03-11T19:29:04;5.88;;;5.13;;
40595;SDS011;26304;48.794;9.820;2023-03-11T19:34:46;7.25;;;5.25;;
40595;SDS011;26304;48.794;9.820;2023-03-11T19:40:29;6.68;;;4.82;;
40595;SDS011;26304;48.794;9.820;2023-03-11T19:46:15;7.80;;;5.30;;
40595;SDS011;26304;48.794;9.820;2023-03-11T19:51:59;8.80;;;5.60;;
40595;SDS011;26304;48.794;9.820;2023-03-11T19:57:41;7.68;;;6.43;;
40595;SDS011;26304;48.794;9.820;2023-03-11T20:03:26;6.35;;;5.70;;
40595;SDS011;26304;48.794;9.820;2023-03-11T20:09:09;7.25;;;5.30;;
40595;SDS011;26304;48.794;9.820;2023-03-11T20:14:52;6.10;;;5.18;;
40595;SDS011;26304;48.794;9.820;2023-03-11T20:20:37;6.57;;;5.88;;
40595;SDS011;26304;48.794;9.820;2023-03-11T20:26:22;6.80;;;6.10;;
40595;SDS011;26304;48.794;9.820;2023-03-11T20:32:06;5.43;;;4.93;;
40595;SDS011;26304;48.794;9.820;2023-03-11T20:37:50;5.20;;;4.70;;
40595;SDS011;26304;48.794;9.820;2023-03-11T20:43:32;4.80;;;4.40;;
40595;SDS011;26304;48.794;9.820;2023-03-11T20:49:15;4.70;;;4.30;;
40595;SDS011;26304;48.794;9.820;2023-03-11T20:54:59;4.80;;;4.40;;
40595;SDS011;26304;48.794;9.820;2023-03-11T21:00:41;4.97;;;4.45;;
40595;SDS011;26304;48.794;9.820;2023-03-11T21:06:25;4.20;;;3.90;;
40595;SDS011;26304;48.794;9.820;2023-03-11T21:12:10;5.53;;;4.18;;
40595;SDS011;26304;48.794;9.820;2023-03-11T21:17:53;5.35;;;4.63;;
40595;SDS011;26304;48.794;9.820;2023-03-11T21:23:35;3.85;;;3.55;;
40595;SDS011;26304;48.794;9.820;2023-03-11T21:29:19;5.57;;;3.78;;
40595;SDS011;26304;48.794;9.820;2023-03-11T21:35:01;4.43;;;4.03;;
40595;SDS011;26304;48.794;9.820;2023-03-11T21:40:44;4.00;;;3.65;;
40595;SDS011;26304;48.794;9.820;2023-03-11T21:46:29;4.15;;;3.75;;
40595;SDS011;26304;48.794;9.820;2023-03-11T21:52:12;3.83;;;3.53;;
40595;SDS011;26304;48.794;9.820;2023-03-11T21:57:55;3.58;;;3.28;;
40595;SDS011;26304;48.794;9.820;2023-03-11T22:03:39;3.75;;;3.45;;
40595;SDS011;26304;48.794;9.820;2023-03-11T22:09:21;4.15;;;3.75;;
40595;SDS011;26304;48.794;9.820;2023-03-11T22:15:05;3.85;;;3.55;;
40595;SDS011;26304;48.794;9.820;2023-03-11T22:20:50;3.65;;;3.35;;
40595;SDS011;26304;48.794;9.820;2023-03-11T22:26:34;3.72;;;3.42;;
40595;SDS011;26304;48.794;9.820;2023-03-11T22:32:18;3.33;;;3.03;;
40595;SDS011;26304;48.794;9.820;2023-03-11T22:38:02;3.38;;;3.08;;
40595;SDS011;26304;48.794;9.820;2023-03-11T22:43:44;3.20;;;3.00;;
40595;SDS011;26304;48.794;9.820;2023-03-11T22:49:27;3.15;;;2.92;;
40595;SDS011;26304;48.794;9.820;2023-03-11T22:55:11;3.30;;;3.00;;
40595;SDS011;26304;48.794;9.820;2023-03-11T23:00:53;2.83;;;2.63;;
40595;SDS011;26304;48.794;9.820;2023-03-11T23:06:36;3.00;;;2.80;;
40595;SDS011;26304;48.794;9.820;2023-03-11T23:12:20;3.10;;;2.88;;
40595;SDS011;26304;48.794;9.820;2023-03-11T23:18:02;3.63;;;2.60;;
40595;SDS011;26304;48.794;9.820;2023-03-11T23:23:45;3.10;;;2.83;;
40595;SDS011;26304;48.794;9.820;2023-03-11T23:29:29;2.97;;;2.78;;
40595;SDS011;26304;48.794;9.820;2023-03-11T23:35:11;2.80;;;2.60;;
40595;SDS011;26304;48.794;9.820;2023-03-11T23:40:54;3.20;;;2.90;;
40595;SDS011;26304;48.794;9.820;2023-03-11T23:46:38;2.80;;;2.60;;
40595;SDS011;26304;48.794;9.820;2023-03-11T23:52:24;2.53;;;2.33;;
40595;SDS011;26304;48.794;9.820;2023-03-11T23:58:07;2.70;;;2.50;;
